Time;durP1;ratioP1;P1;durP2;ratioP2;P2;SDS_P1;SDS_P2;PMS_P1;PMS_P2;Temp;Humidity;BMP_temperature;BMP_pressure;BME280_temperature;BME280_humidity;BME280_pressure;Samples;Min_cycle;Max_cycle;Signal;HPM_P1;HPM_P2
2024/03/03 00:00:18;;;;;;;6.07;5.07;;;8.30;99.90;;;;;;5016591;28;20491;-85
2024/03/03 00:02:45;;;;;;;12.20;5.57;;;8.30;99.90;;;;;;5022824;28;20518;-85
2024/03/03 00:05:11;;;;;;;16.37;5.23;;;8.30;99.90;;;;;;5018325;28;20456;-85
2024/03/03 00:07:38;;;;;;;14.53;5.90;;;8.30;99.90;;;;;;5017856;28;20476;-86
2024/03/03 00:10:06;;;;;;;13.53;5.50;;;8.30;99.90;;;;;;5018711;28;20932;-86
2024/03/03 00:12:33;;;;;;;13.20;6.50;;;8.30;99.90;;;;;;5018522;28;20442;-85
2024/03/03 00:15:00;;;;;;;11.73;5.43;;;8.40;99.90;;;;;;5019103;28;20435;-85
2024/03/03 00:17:28;;;;;;;7.60;4.77;;;8.40;99.90;;;;;;5018219;28;20471;-85
2024/03/03 00:19:54;;;;;;;8.00;3.90;;;8.40;99.90;;;;;;5018193;28;20444;-85
2024/03/03 00:22:21;;;;;;;9.23;5.23;;;8.40;99.90;;;;;;5018176;28;20491;-85
2024/03/03 00:24:48;;;;;;;10.37;4.90;;;9.60;99.90;;;;;;5017831;28;20480;-85
2024/03/03 00:27:15;;;;;;;11.90;5.87;;;8.30;99.90;;;;;;5018195;28;20471;-85
2024/03/03 00:29:41;;;;;;;8.77;4.87;;;8.30;99.90;;;;;;5018922;28;20463;-85
2024/03/03 00:32:08;;;;;;;13.30;5.93;;;8.20;99.90;;;;;;5017210;28;20448;-85
2024/03/03 00:34:36;;;;;;;11.83;6.13;;;8.30;99.90;;;;;;5016198;28;20447;-85
2024/03/03 00:37:03;;;;;;;8.23;5.67;;;8.20;99.90;;;;;;5016537;28;20467;-85
2024/03/03 00:39:30;;;;;;;14.60;5.60;;;8.20;99.90;;;;;;5016247;28;20555;-85
2024/03/03 00:41:57;;;;;;;8.53;4.80;;;8.20;99.90;;;;;;5016247;28;20519;-85
2024/03/03 00:44:24;;;;;;;13.90;6.00;;;8.20;99.90;;;;;;5016799;28;20448;-85
2024/03/03 00:46:50;;;;;;;15.23;6.20;;;8.20;99.90;;;;;;5015886;28;20459;-85
2024/03/03 00:49:17;;;;;;;9.53;6.10;;;8.20;99.90;;;;;;5016328;28;20452;-85
2024/03/03 00:51:45;;;;;;;14.70;6.90;;;8.10;99.90;;;;;;5017333;28;20458;-85
2024/03/03 00:54:12;;;;;;;11.00;6.30;;;8.10;99.90;;;;;;5019530;28;20479;-85
2024/03/03 00:56:39;;;;;;;7.80;4.30;;;8.10;99.90;;;;;;5022117;28;20455;-86
2024/03/03 00:59:06;;;;;;;16.27;5.20;;;8.10;99.90;;;;;;5018907;28;20941;-85
2024/03/03 01:01:32;;;;;;;11.77;5.83;;;8.10;99.90;;;;;;5017291;28;21030;-85
2024/03/03 01:03:59;;;;;;;8.60;4.83;;;8.00;99.90;;;;;;5017911;28;20459;-85
2024/03/03 01:06:26;;;;;;;7.67;5.60;;;8.00;99.90;;;;;;5018064;28;20816;-85
2024/03/03 01:08:54;;;;;;;11.13;5.30;;;8.00;99.90;;;;;;5017980;28;20451;-85
2024/03/03 01:11:20;;;;;;;13.90;6.40;;;8.00;99.90;;;;;;5017621;28;20963;-85
2024/03/03 01:13:47;;;;;;;15.77;6.57;;;8.00;99.90;;;;;;5017398;28;20448;-85
2024/03/03 01:16:14;;;;;;;10.40;4.87;;;8.00;99.90;;;;;;5017059;28;20458;-84
2024/03/03 01:18:41;;;;;;;4.33;3.53;;;8.00;99.90;;;;;;5017039;28;20451;-85
2024/03/03 01:21:07;;;;;;;11.07;6.37;;;8.00;99.90;;;;;;5017581;28;20490;-85
2024/03/03 01:23:35;;;;;;;12.33;4.63;;;8.00;99.90;;;;;;5017328;28;20452;-84
2024/03/03 01:26:03;;;;;;;12.30;5.37;;;8.00;99.90;;;;;;5016780;28;20486;-85
2024/03/03 01:28:31;;;;;;;13.37;5.67;;;7.90;99.90;;;;;;5016871;28;20464;-85
2024/03/03 01:30:58;;;;;;;17.20;6.00;;;7.90;99.90;;;;;;5017902;28;20448;-84
2024/03/03 01:33:24;;;;;;;12.37;6.03;;;7.80;99.90;;;;;;5017696;28;20448;-84
2024/03/03 01:35:52;;;;;;;9.77;5.97;;;7.80;99.90;;;;;;5016922;28;20480;-85
2024/03/03 01:38:19;;;;;;;12.33;4.60;;;7.80;99.90;;;;;;5016991;28;20472;-84
2024/03/03 01:40:50;;;;;;;13.23;5.30;;;7.60;99.90;;;;;;5016744;28;20494;-84
2024/03/03 01:43:18;;;;;;;11.10;5.00;;;7.70;99.90;;;;;;5016875;28;20459;-85
2024/03/03 01:45:45;;;;;;;19.03;6.83;;;7.70;99.90;;;;;;5017776;28;20450;-84
2024/03/03 01:48:12;;;;;;;11.30;6.00;;;7.90;99.90;;;;;;5017527;28;20820;-84
2024/03/03 01:50:41;;;;;;;13.23;6.03;;;7.70;99.90;;;;;;5018507;28;20798;-84
2024/03/03 01:53:08;;;;;;;31.67;6.67;;;7.60;99.90;;;;;;5038092;28;20458;-80
2024/03/03 01:55:35;;;;;;;7.00;5.40;;;7.60;99.90;;;;;;5038916;28;20431;-81
2024/03/03 01:58:03;;;;;;;12.47;6.50;;;7.60;99.90;;;;;;5038893;28;20470;-83
2024/03/03 02:00:34;;;;;;;15.63;7.70;;;7.60;99.90;;;;;;5033494;28;20815;-84
2024/03/03 02:03:05;;;;;;;11.77;6.83;;;7.60;99.90;;;;;;5022592;28;20808;-83
2024/03/03 02:05:33;;;;;;;13.10;5.63;;;7.50;99.90;;;;;;5021530;28;20447;-84
2024/03/03 02:08:00;;;;;;;16.07;5.73;;;7.50;99.90;;;;;;5022485;28;20853;-83
2024/03/03 02:10:27;;;;;;;13.20;6.40;;;7.50;99.90;;;;;;5021841;28;20451;-83
2024/03/03 02:12:54;;;;;;;14.67;5.67;;;7.40;99.90;;;;;;5025618;28;20800;-83
2024/03/03 02:15:20;;;;;;;8.60;5.87;;;7.40;99.90;;;;;;5026234;28;20444;-83
2024/03/03 02:17:49;;;;;;;12.97;6.80;;;7.40;99.90;;;;;;5027177;28;20452;-83
2024/03/03 02:20:16;;;;;;;14.90;6.27;;;7.30;99.90;;;;;;5032914;28;20451;-83
2024/03/03 02:22:44;;;;;;;10.13;5.67;;;7.30;99.90;;;;;;5033084;28;20842;-83
2024/03/03 02:25:11;;;;;;;13.20;5.67;;;7.20;99.90;;;;;;5030672;28;20487;-83
2024/03/03 02:27:38;;;;;;;17.33;6.63;;;7.20;99.90;;;;;;5030469;28;20478;-83
2024/03/03 02:30:08;;;;;;;16.47;6.10;;;7.20;99.90;;;;;;5027825;28;20447;-83
2024/03/03 02:32:34;;;;;;;18.87;5.77;;;7.30;99.90;;;;;;5029843;28;20452;-82
2024/03/03 02:35:01;;;;;;;11.27;5.40;;;7.30;99.90;;;;;;5028835;28;20459;-83
2024/03/03 02:37:28;;;;;;;14.77;5.87;;;7.30;99.90;;;;;;5036005;28;20463;-83
2024/03/03 02:39:56;;;;;;;8.27;4.77;;;7.30;99.90;;;;;;5038788;28;20452;-83
2024/03/03 02:42:23;;;;;;;17.17;7.43;;;8.50;99.90;;;;;;5035821;28;20483;-83
2024/03/03 02:44:49;;;;;;;15.93;7.10;;;7.20;99.90;;;;;;5038277;28;20462;-83
2024/03/03 02:47:17;;;;;;;20.70;6.10;;;7.20;99.90;;;;;;5040099;28;20470;-82
2024/03/03 02:49:43;;;;;;;14.13;5.10;;;7.20;99.90;;;;;;5041341;28;20438;-81
2024/03/03 02:52:10;;;;;;;15.30;5.33;;;7.10;99.90;;;;;;5041686;28;20444;-81
2024/03/03 02:54:37;;;;;;;14.77;5.53;;;7.50;99.90;;;;;;5041111;28;20445;-82
2024/03/03 02:57:05;;;;;;;11.60;5.30;;;7.00;99.90;;;;;;5041870;28;20456;-80
2024/03/03 02:59:33;;;;;;;12.20;5.93;;;7.00;99.90;;;;;;5042090;28;20495;-82
2024/03/03 03:02:00;;;;;;;10.63;4.90;;;7.00;99.90;;;;;;5041955;28;20557;-79
2024/03/03 03:04:27;;;;;;;10.40;5.90;;;6.90;99.90;;;;;;5042019;28;20416;-79
2024/03/03 03:06:53;;;;;;;10.70;3.90;;;6.90;99.90;;;;;;5041953;28;20459;-79
2024/03/03 03:09:20;;;;;;;11.57;5.57;;;6.80;99.90;;;;;;5041744;28;20454;-79
2024/03/03 03:11:47;;;;;;;15.43;5.30;;;6.80;99.90;;;;;;5041951;28;20455;-80
2024/03/03 03:14:15;;;;;;;8.17;4.20;;;6.80;99.90;;;;;;5041953;28;20405;-79
2024/03/03 03:16:42;;;;;;;14.00;5.90;;;6.70;99.90;;;;;;5041758;28;20474;-79
2024/03/03 03:19:09;;;;;;;16.00;6.60;;;6.60;99.90;;;;;;5041889;28;20488;-80
2024/03/03 03:21:36;;;;;;;16.63;5.73;;;7.30;99.90;;;;;;5041619;28;20447;-78
2024/03/03 03:24:03;;;;;;;11.40;3.87;;;6.70;99.90;;;;;;5041443;28;20475;-80
2024/03/03 03:26:29;;;;;;;14.70;5.23;;;6.60;99.90;;;;;;5041584;28;20439;-78
2024/03/03 03:28:56;;;;;;;18.43;6.20;;;6.60;99.90;;;;;;5041630;28;20415;-79
2024/03/03 03:31:24;;;;;;;11.00;5.43;;;6.60;99.90;;;;;;5041612;28;20444;-78
2024/03/03 03:33:51;;;;;;;10.63;3.80;;;7.60;99.90;;;;;;5041478;28;20434;-81
2024/03/03 03:36:18;;;;;;;8.93;5.17;;;6.60;99.90;;;;;;5041405;28;20420;-78
2024/03/03 03:38:45;;;;;;;14.53;6.33;;;6.70;99.90;;;;;;5041385;28;20448;-78
2024/03/03 03:41:12;;;;;;;12.63;5.70;;;6.70;99.90;;;;;;5041339;28;20424;-79
2024/03/03 03:43:39;;;;;;;11.30;5.80;;;6.70;99.90;;;;;;5041371;28;20420;-79
2024/03/03 03:46:06;;;;;;;12.73;5.17;;;7.50;99.90;;;;;;5040697;28;20499;-79
2024/03/03 03:48:34;;;;;;;17.03;6.90;;;6.70;99.90;;;;;;5040670;28;20438;-79
2024/03/03 03:51:00;;;;;;;7.47;3.47;;;7.70;99.90;;;;;;5041189;28;20416;-78
2024/03/03 03:53:28;;;;;;;12.40;5.67;;;6.70;99.90;;;;;;5041125;28;20426;-80
2024/03/03 03:55:55;;;;;;;17.23;6.23;;;6.70;99.90;;;;;;5041166;28;20471;-80
2024/03/03 03:58:22;;;;;;;12.90;5.77;;;6.80;99.90;;;;;;5040978;28;20435;-79
2024/03/03 04:00:49;;;;;;;6.73;4.00;;;6.70;99.90;;;;;;5041048;28;20420;-80
2024/03/03 04:03:15;;;;;;;8.83;6.00;;;6.70;99.90;;;;;;5040828;28;20471;-80
2024/03/03 04:05:43;;;;;;;7.47;3.53;;;7.80;99.90;;;;;;5040936;28;20492;-78
2024/03/03 04:08:10;;;;;;;9.63;3.60;;;6.60;99.90;;;;;;5040763;28;20444;-80
2024/03/03 04:10:37;;;;;;;7.40;3.77;;;6.60;99.90;;;;;;5040810;28;20444;-78
2024/03/03 04:13:04;;;;;;;10.27;4.70;;;6.60;99.90;;;;;;5040754;28;20408;-81
2024/03/03 04:15:31;;;;;;;9.97;5.73;;;6.50;99.90;;;;;;5040675;28;20454;-78
2024/03/03 04:17:57;;;;;;;9.17;4.60;;;6.50;99.90;;;;;;5040688;28;20443;-80
2024/03/03 04:20:24;;;;;;;7.00;5.10;;;6.50;99.90;;;;;;5040622;28;20416;-79
2024/03/03 04:22:52;;;;;;;12.67;3.70;;;6.50;99.90;;;;;;5040404;28;20483;-80
2024/03/03 04:25:19;;;;;;;12.57;4.73;;;6.40;99.90;;;;;;5040383;28;20463;-79
2024/03/03 04:27:46;;;;;;;7.60;4.93;;;6.90;99.90;;;;;;5040401;28;20515;-82
2024/03/03 04:30:12;;;;;;;11.10;4.20;;;6.40;99.90;;;;;;5040322;28;20440;-81
2024/03/03 04:32:39;;;;;;;15.77;5.83;;;6.50;99.90;;;;;;5040015;28;20436;-83
2024/03/03 04:35:07;;;;;;;12.30;4.73;;;6.40;99.90;;;;;;5039873;28;20455;-82
2024/03/03 04:37:34;;;;;;;11.30;5.27;;;6.40;99.90;;;;;;5040150;28;20442;-79
2024/03/03 04:40:03;;;;;;;13.30;6.27;;;6.40;99.90;;;;;;5040272;28;20440;-80
2024/03/03 04:42:30;;;;;;;9.10;4.40;;;6.40;99.90;;;;;;5040133;28;20471;-79
2024/03/03 04:44:57;;;;;;;13.47;5.70;;;6.40;99.90;;;;;;5040182;28;20419;-78
2024/03/03 04:47:24;;;;;;;11.00;3.80;;;6.40;99.90;;;;;;5039980;28;20482;-78
2024/03/03 04:49:51;;;;;;;8.03;4.00;;;6.40;99.90;;;;;;5040118;28;20476;-79
2024/03/03 04:52:18;;;;;;;7.73;4.10;;;6.40;99.90;;;;;;5040137;28;20434;-79
2024/03/03 04:54:44;;;;;;;8.53;3.90;;;6.40;99.90;;;;;;5040045;28;20435;-78
2024/03/03 04:57:12;;;;;;;10.10;4.90;;;7.50;99.90;;;;;;5039898;28;20440;-78
2024/03/03 04:59:39;;;;;;;16.03;6.17;;;6.40;99.90;;;;;;5039562;28;20444;-78
2024/03/03 05:02:06;;;;;;;7.03;3.40;;;6.40;99.90;;;;;;5039812;28;20447;-80
2024/03/03 05:04:33;;;;;;;19.27;4.80;;;6.40;99.90;;;;;;5039880;28;20435;-78
2024/03/03 05:07:00;;;;;;;9.07;5.13;;;6.40;99.90;;;;;;5039790;28;20428;-79
2024/03/03 05:09:27;;;;;;;18.80;5.57;;;6.30;99.90;;;;;;5039733;28;20439;-78
2024/03/03 05:11:53;;;;;;;12.77;5.37;;;6.40;99.90;;;;;;5039697;28;20416;-79
2024/03/03 05:14:22;;;;;;;13.13;5.87;;;6.30;99.90;;;;;;5039743;28;20424;-80
2024/03/03 05:16:49;;;;;;;14.30;5.43;;;7.20;99.90;;;;;;5039554;28;20452;-79
2024/03/03 05:19:16;;;;;;;14.23;5.50;;;6.30;99.90;;;;;;5039587;28;20430;-80
2024/03/03 05:21:43;;;;;;;12.70;4.40;;;6.30;99.90;;;;;;5039431;28;20443;-79
2024/03/03 05:24:10;;;;;;;11.07;5.27;;;7.60;99.90;;;;;;5039390;28;20460;-78
2024/03/03 05:26:37;;;;;;;10.00;5.60;;;6.30;99.90;;;;;;5039464;28;21768;-81
2024/03/03 05:29:04;;;;;;;11.17;4.70;;;6.30;99.90;;;;;;5039492;28;20416;-79
2024/03/03 05:31:40;;;;;;;12.70;6.10;;;6.30;99.90;;;;;;5039487;28;20447;-80
2024/03/03 05:34:12;;;;;;;29.00;6.70;;;6.30;99.90;;;;;;5039455;28;20419;-79
2024/03/03 05:36:39;;;;;;;16.77;6.17;;;6.40;99.90;;;;;;5039296;28;20447;-79
2024/03/03 05:39:06;;;;;;;10.90;5.10;;;7.40;99.90;;;;;;5039248;28;20438;-80
2024/03/03 05:41:32;;;;;;;15.73;7.33;;;6.40;99.90;;;;;;5039159;28;20448;-79
2024/03/03 05:43:59;;;;;;;9.20;4.33;;;6.30;99.90;;;;;;5039210;28;20454;-79
2024/03/03 05:46:26;;;;;;;7.53;3.67;;;6.40;99.90;;;;;;5039096;28;20455;-78
2024/03/03 05:48:54;;;;;;;14.90;6.50;;;6.40;99.90;;;;;;5039190;28;20434;-78
2024/03/03 05:51:21;;;;;;;10.83;6.30;;;6.50;99.90;;;;;;5039184;28;20479;-78
2024/03/03 05:53:48;;;;;;;19.20;6.47;;;6.50;99.90;;;;;;5039211;28;20419;-80
2024/03/03 05:56:15;;;;;;;13.03;5.87;;;7.60;99.90;;;;;;5039181;28;20422;-80
2024/03/03 05:58:42;;;;;;;7.20;5.87;;;6.50;99.90;;;;;;5039091;28;20443;-80
2024/03/03 06:01:09;;;;;;;13.00;4.67;;;6.50;99.90;;;;;;5039105;28;20412;-78
2024/03/03 06:03:36;;;;;;;10.17;5.60;;;6.50;99.90;;;;;;5039011;28;20471;-80
2024/03/03 06:06:06;;;;;;;14.10;5.03;;;6.50;99.90;;;;;;5039125;28;20424;-79
2024/03/03 06:08:33;;;;;;;19.63;6.93;;;6.50;99.90;;;;;;5038965;28;20463;-78
2024/03/03 06:11:00;;;;;;;13.60;6.03;;;6.60;99.90;;;;;;5041460;28;20419;-79
2024/03/03 06:13:27;;;;;;;22.90;6.90;;;6.60;99.90;;;;;;5043019;28;20503;-79
2024/03/03 06:15:54;;;;;;;14.00;5.03;;;6.70;99.90;;;;;;5042981;28;20416;-78
2024/03/03 06:18:20;;;;;;;15.77;5.90;;;6.80;99.90;;;;;;5042926;28;20443;-79
2024/03/03 06:20:47;;;;;;;10.20;5.13;;;6.80;99.90;;;;;;5042942;28;20441;-79
2024/03/03 06:23:15;;;;;;;16.10;5.90;;;6.80;99.90;;;;;;5042719;28;20462;-80
2024/03/03 06:25:42;;;;;;;10.47;5.37;;;6.90;99.90;;;;;;5042796;28;20437;-81
2024/03/03 06:28:09;;;;;;;19.03;7.20;;;7.00;99.90;;;;;;5042737;28;20460;-81
2024/03/03 06:30:36;;;;;;;13.30;5.70;;;7.00;99.90;;;;;;5042503;28;20439;-82
2024/03/03 06:33:02;;;;;;;16.17;6.60;;;7.00;99.90;;;;;;5041559;28;20447;-82
2024/03/03 06:35:29;;;;;;;10.73;5.17;;;7.00;99.90;;;;;;5041431;28;20450;-82
2024/03/03 06:37:56;;;;;;;16.90;4.23;;;7.00;99.90;;;;;;5041314;28;20463;-82
2024/03/03 06:40:24;;;;;;;15.90;5.47;;;7.20;99.90;;;;;;5038213;28;20440;-83
2024/03/03 06:42:51;;;;;;;10.37;5.00;;;7.90;99.90;;;;;;5034696;28;20495;-82
2024/03/03 06:45:18;;;;;;;11.30;4.93;;;7.10;99.90;;;;;;5031678;28;20448;-84
2024/03/03 06:47:44;;;;;;;16.07;6.63;;;7.20;99.90;;;;;;5034902;28;20471;-84
2024/03/03 06:50:11;;;;;;;8.90;4.30;;;7.30;99.90;;;;;;5035851;28;20444;-83
2024/03/03 06:52:38;;;;;;;10.93;4.83;;;7.40;99.90;;;;;;5035176;28;20440;-84
2024/03/03 06:55:07;;;;;;;14.50;6.90;;;7.40;99.90;;;;;;5031203;28;20451;-83
2024/03/03 06:57:35;;;;;;;15.93;6.97;;;7.50;99.90;;;;;;5028764;28;20549;-84
2024/03/03 07:00:01;;;;;;;14.47;6.20;;;7.60;99.90;;;;;;5026997;28;20802;-84
2024/03/03 07:02:57;;;;;;;17.73;5.43;;;7.60;99.90;;;;;;5023113;28;20483;-83
2024/03/03 07:05:15;;;;;;;20.73;5.87;;;7.70;99.90;;;;;;5020806;28;20454;-84
2024/03/03 07:07:42;;;;;;;15.47;5.67;;;7.70;99.90;;;;;;5022988;28;20498;-83
2024/03/03 07:10:09;;;;;;;12.90;6.43;;;7.80;99.90;;;;;;5023200;28;20451;-83
2024/03/03 07:12:37;;;;;;;15.93;6.80;;;7.80;99.90;;;;;;5029472;28;20507;-83
2024/03/03 07:15:05;;;;;;;18.27;7.00;;;7.90;99.90;;;;;;5041569;28;20416;-80
2024/03/03 07:17:32;;;;;;;10.53;6.20;;;7.90;99.90;;;;;;5041210;28;20447;-82
2024/03/03 07:20:01;;;;;;;14.50;7.07;;;7.90;99.90;;;;;;5041314;28;20494;-84
2024/03/03 07:22:31;;;;;;;6.83;5.10;;;8.00;99.90;;;;;;5040414;28;20440;-84
2024/03/03 07:24:57;;;;;;;11.93;4.97;;;8.00;99.90;;;;;;5028641;28;20468;-83
2024/03/03 07:27:24;;;;;;;14.80;7.07;;;8.00;99.90;;;;;;5021914;28;20474;-84
2024/03/03 07:29:52;;;;;;;16.90;5.03;;;7.90;99.90;;;;;;5020995;28;20458;-83
2024/03/03 07:32:19;;;;;;;11.20;6.63;;;8.00;99.90;;;;;;5020683;28;20466;-83
2024/03/03 07:34:48;;;;;;;9.73;4.70;;;7.90;99.90;;;;;;5020300;28;20447;-84
2024/03/03 07:37:15;;;;;;;9.97;4.43;;;7.80;99.90;;;;;;5021114;28;20817;-85
2024/03/03 07:39:42;;;;;;;12.17;5.63;;;7.80;99.90;;;;;;5026941;28;20447;-82
2024/03/03 07:42:09;;;;;;;12.87;6.37;;;7.90;99.90;;;;;;5031038;28;20443;-83
2024/03/03 07:44:36;;;;;;;10.97;6.27;;;7.80;99.90;;;;;;5024107;28;20487;-83
2024/03/03 07:47:05;;;;;;;12.80;4.77;;;7.90;99.90;;;;;;5021198;28;20471;-83
2024/03/03 07:49:32;;;;;;;7.17;4.90;;;7.80;99.90;;;;;;5033011;28;20416;-83
2024/03/03 07:51:58;;;;;;;10.07;6.33;;;7.90;99.90;;;;;;5033504;28;20452;-83
2024/03/03 07:54:25;;;;;;;11.80;5.70;;;7.90;99.90;;;;;;5024803;28;20444;-84
2024/03/03 07:56:52;;;;;;;13.67;7.30;;;7.90;99.90;;;;;;5020776;28;20475;-84
2024/03/03 07:59:19;;;;;;;13.77;6.47;;;7.90;99.90;;;;;;5018815;28;20432;-84
2024/03/03 08:01:45;;;;;;;13.60;6.50;;;8.00;99.90;;;;;;5019941;28;20447;-84
2024/03/03 08:04:15;;;;;;;13.07;6.87;;;8.00;99.90;;;;;;5020542;28;20925;-84
2024/03/03 08:06:42;;;;;;;9.53;5.90;;;8.00;99.90;;;;;;5019026;28;20467;-84
2024/03/03 08:09:09;;;;;;;11.73;4.97;;;8.10;99.90;;;;;;5019329;28;20451;-85
2024/03/03 08:11:36;;;;;;;15.97;7.27;;;8.00;99.90;;;;;;5018957;28;20486;-85
2024/03/03 08:14:04;;;;;;;11.90;5.20;;;8.00;99.90;;;;;;5018765;28;20452;-84
2024/03/03 08:16:33;;;;;;;15.03;5.83;;;8.10;99.90;;;;;;5001751;28;20538;-84
2024/03/03 08:19:00;;;;;;;13.27;5.10;;;8.10;99.90;;;;;;5018673;28;20486;-85
2024/03/03 08:21:28;;;;;;;9.77;4.87;;;8.20;99.90;;;;;;5018664;28;20444;-84
2024/03/03 08:23:55;;;;;;;10.47;4.97;;;8.20;99.90;;;;;;5018455;28;20491;-85
2024/03/03 08:26:22;;;;;;;10.43;3.97;;;9.60;99.90;;;;;;5017379;28;20547;-84
2024/03/03 08:28:48;;;;;;;9.40;5.10;;;8.30;99.90;;;;;;5018235;28;20448;-84
2024/03/03 08:31:16;;;;;;;10.03;4.70;;;8.40;99.90;;;;;;5016901;28;20458;-85
2024/03/03 08:33:42;;;;;;;12.23;5.37;;;8.60;99.90;;;;;;5017357;28;20452;-85
2024/03/03 08:36:10;;;;;;;7.20;4.17;;;8.70;99.90;;;;;;5018389;28;20448;-85
2024/03/03 08:38:38;;;;;;;13.30;5.40;;;8.50;99.90;;;;;;5018507;28;20467;-85
2024/03/03 08:41:05;;;;;;;9.57;4.30;;;8.70;99.90;;;;;;5017041;28;20456;-85
2024/03/03 08:43:32;;;;;;;13.70;5.57;;;8.70;99.90;;;;;;5018239;28;20506;-86
2024/03/03 08:45:59;;;;;;;8.13;5.17;;;8.60;99.90;;;;;;5018041;28;20964;-85
2024/03/03 08:48:25;;;;;;;10.10;3.87;;;8.60;99.90;;;;;;5017820;28;20470;-85
2024/03/03 08:50:52;;;;;;;15.17;5.77;;;9.70;99.90;;;;;;5018373;28;20444;-85
2024/03/03 08:53:19;;;;;;;10.33;5.23;;;8.70;99.90;;;;;;5018815;28;20439;-85
2024/03/03 08:55:47;;;;;;;8.37;4.37;;;8.80;99.90;;;;;;5018058;28;20475;-85
2024/03/03 08:58:14;;;;;;;13.27;5.73;;;8.80;99.90;;;;;;5017182;28;20467;-85
2024/03/03 09:00:41;;;;;;;12.00;4.50;;;8.90;99.90;;;;;;5016889;28;20459;-85
2024/03/03 09:03:08;;;;;;;11.83;3.87;;;9.00;99.90;;;;;;5016977;28;20471;-85
2024/03/03 09:05:35;;;;;;;11.97;4.47;;;9.00;99.90;;;;;;5016208;28;20478;-86
2024/03/03 09:08:03;;;;;;;10.60;4.00;;;9.10;99.90;;;;;;5017026;28;20467;-85
2024/03/03 09:10:29;;;;;;;10.13;5.23;;;9.30;99.90;;;;;;5016239;28;21027;-85
2024/03/03 09:12:57;;;;;;;10.87;5.07;;;9.30;99.90;;;;;;5016507;28;20447;-86
2024/03/03 09:15:24;;;;;;;5.90;4.30;;;9.40;99.90;;;;;;5015503;28;20459;-86
2024/03/03 09:17:51;;;;;;;8.20;4.20;;;9.50;99.90;;;;;;5016723;28;20468;-86
2024/03/03 09:20:18;;;;;;;9.60;4.97;;;9.50;99.90;;;;;;5015624;28;20447;-86
2024/03/03 09:22:44;;;;;;;10.03;4.73;;;9.50;99.90;;;;;;5015484;28;20452;-86
2024/03/03 09:25:11;;;;;;;5.87;3.47;;;9.60;99.90;;;;;;5015664;28;20897;-86
2024/03/03 09:27:38;;;;;;;9.87;4.00;;;9.70;99.90;;;;;;5016149;28;20456;-86
2024/03/03 09:30:08;;;;;;;4.90;3.03;;;9.70;99.90;;;;;;5015820;28;20807;-85
2024/03/03 09:32:34;;;;;;;8.43;3.87;;;9.80;99.90;;;;;;5015399;28;20502;-86
2024/03/03 09:35:01;;;;;;;10.23;4.10;;;10.00;99.90;;;;;;5015863;28;20454;-86
2024/03/03 09:37:28;;;;;;;4.63;3.37;;;9.80;99.90;;;;;;5015677;28;20808;-85
2024/03/03 09:39:54;;;;;;;4.30;3.63;;;10.00;99.90;;;;;;5016902;28;20440;-86
2024/03/03 09:42:21;;;;;;;8.97;4.20;;;10.20;99.90;;;;;;5017723;28;20447;-86
2024/03/03 09:44:51;;;;;;;6.23;3.60;;;10.40;99.90;;;;;;5022900;28;20476;-86
2024/03/03 09:47:20;;;;;;;7.07;4.23;;;10.60;99.90;;;;;;5017399;28;20968;-86
2024/03/03 09:49:48;;;;;;;7.17;3.50;;;10.90;99.90;;;;;;5017167;28;20851;-85
2024/03/03 09:52:15;;;;;;;12.37;3.50;;;11.20;99.90;;;;;;5017892;28;20417;-86
2024/03/03 09:54:42;;;;;;;11.70;4.73;;;11.70;99.90;;;;;;5017143;28;20968;-86
2024/03/03 09:57:12;;;;;;;7.87;4.30;;;12.00;99.90;;;;;;5021340;28;20474;-86
2024/03/03 09:59:40;;;;;;;8.97;3.73;;;12.30;99.90;;;;;;5022865;28;20432;-86
2024/03/03 10:02:15;;;;;;;9.80;4.83;;;12.60;99.90;;;;;;5017682;28;20454;-86
2024/03/03 10:04:44;;;;;;;7.17;3.07;;;13.00;99.90;;;;;;5017814;28;20547;-85
2024/03/03 10:07:16;;;;;;;14.03;4.47;;;13.30;99.90;;;;;;5018156;28;20460;-86
2024/03/03 10:09:46;;;;;;;12.33;5.00;;;13.50;99.90;;;;;;5017488;28;20430;-85
2024/03/03 10:12:13;;;;;;;6.17;3.33;;;13.50;99.90;;;;;;5017720;28;20428;-86
2024/03/03 10:14:40;;;;;;;8.97;4.70;;;13.60;99.90;;;;;;5018789;28;20956;-85
2024/03/03 10:17:08;;;;;;;7.87;4.53;;;13.80;99.90;;;;;;5016902;28;20494;-85
2024/03/03 10:19:34;;;;;;;6.17;3.63;;;13.70;99.90;;;;;;5017403;28;20447;-85
2024/03/03 10:22:05;;;;;;;4.27;2.97;;;13.80;99.90;;;;;;5017550;28;20944;-84
2024/03/03 10:24:32;;;;;;;5.40;3.10;;;13.90;99.90;;;;;;5017737;28;20574;-85
2024/03/03 10:27:00;;;;;;;8.30;3.67;;;14.40;99.90;;;;;;5018095;28;20464;-84
2024/03/03 10:29:28;;;;;;;8.10;2.60;;;14.70;99.90;;;;;;5017245;28;20455;-84
2024/03/03 10:31:55;;;;;;;3.37;2.70;;;14.80;99.90;;;;;;5016937;28;20444;-84
2024/03/03 10:34:22;;;;;;;4.60;3.17;;;14.70;99.90;;;;;;5016897;28;20447;-84
2024/03/03 10:37:00;;;;;;;5.00;2.60;;;14.20;99.90;;;;;;5016370;28;20463;-84
2024/03/03 10:39:28;;;;;;;7.67;3.87;;;14.00;99.90;;;;;;5016882;28;20423;-84
2024/03/03 10:41:55;;;;;;;4.97;2.80;;;14.00;99.90;;;;;;5016634;28;20444;-84
2024/03/03 10:44:24;;;;;;;4.43;2.53;;;13.90;99.90;;;;;;5016142;28;21006;-84
2024/03/03 10:46:51;;;;;;;4.17;3.30;;;14.00;99.90;;;;;;5016365;28;20471;-85
2024/03/03 10:49:19;;;;;;;4.43;2.63;;;14.20;99.90;;;;;;5016685;28;20502;-84
2024/03/03 10:51:47;;;;;;;4.87;3.03;;;14.30;99.90;;;;;;5016119;28;20452;-85
2024/03/03 10:54:15;;;;;;;6.27;2.70;;;14.50;99.90;;;;;;5015790;28;20475;-85
2024/03/03 10:56:44;;;;;;;7.40;2.90;;;15.00;99.90;;;;;;5017869;28;20480;-84
2024/03/03 10:59:11;;;;;;;7.90;2.23;;;15.20;99.90;;;;;;5022282;28;20447;-86
2024/03/03 11:01:38;;;;;;;5.13;2.20;;;15.50;99.90;;;;;;5026962;28;20458;-86
2024/03/03 11:04:06;;;;;;;10.37;3.13;;;15.70;99.90;;;;;;5019938;28;20486;-85
2024/03/03 11:06:34;;;;;;;6.83;2.97;;;16.00;99.90;;;;;;5026050;28;20561;-84
2024/03/03 11:09:01;;;;;;;2.80;2.10;;;16.40;99.90;;;;;;5027510;28;20463;-85
2024/03/03 11:11:33;;;;;;;3.30;2.23;;;16.40;99.90;;;;;;5022163;28;20447;-84
2024/03/03 11:14:11;;;;;;;2.67;1.63;;;16.00;99.90;;;;;;5022592;28;20940;-85
2024/03/03 11:16:41;;;;;;;2.50;1.50;;;15.70;99.90;;;;;;5021673;28;20539;-85
2024/03/03 11:19:13;;;;;;;5.77;2.40;;;15.50;99.90;;;;;;5021891;28;20466;-85
2024/03/03 11:21:50;;;;;;;2.80;1.77;;;15.30;99.90;;;;;;5023618;28;20470;-85
2024/03/03 11:24:23;;;;;;;4.10;1.73;;;15.20;99.90;;;;;;5020295;28;20490;-85
2024/03/03 11:26:55;;;;;;;5.00;2.67;;;15.20;99.90;;;;;;5018677;28;20478;-85
2024/03/03 11:29:25;;;;;;;2.67;2.30;;;15.10;99.90;;;;;;5018074;28;20913;-85
2024/03/03 11:31:52;;;;;;;2.63;1.70;;;15.10;99.90;;;;;;5018732;28;20447;-85
2024/03/03 11:34:19;;;;;;;1.57;1.27;;;15.20;99.90;;;;;;5018411;28;20450;-85
2024/03/03 11:36:47;;;;;;;3.83;1.73;;;15.20;99.90;;;;;;5018651;28;20463;-85
2024/03/03 11:39:15;;;;;;;3.13;1.40;;;15.30;99.90;;;;;;5018251;28;20440;-85
2024/03/03 11:41:42;;;;;;;2.80;2.00;;;15.20;99.90;;;;;;5038102;28;20428;-82
2024/03/03 11:44:43;;;;;;;1.73;1.53;;;15.10;99.90;;;;;;5040957;28;20467;-84
2024/03/03 11:47:11;;;;;;;2.37;1.27;;;14.90;99.90;;;;;;5036944;28;20486;-85
2024/03/03 11:49:41;;;;;;;1.30;0.90;;;15.00;99.90;;;;;;5036390;28;20447;-84
2024/03/03 11:52:11;;;;;;;0.70;0.70;;;15.10;99.90;;;;;;5035801;28;20427;-85
2024/03/03 11:54:39;;;;;;;1.47;1.07;;;15.30;99.90;;;;;;5034760;28;20444;-84
2024/03/03 11:57:07;;;;;;;1.70;1.03;;;15.10;99.90;;;;;;5029076;28;20494;-85
2024/03/03 11:59:37;;;;;;;1.30;1.20;;;14.80;99.90;;;;;;5028632;28;20452;-85
2024/03/03 12:02:05;;;;;;;1.83;1.10;;;14.80;99.90;;;;;;5026177;28;20447;-85
2024/03/03 12:04:33;;;;;;;1.27;1.10;;;14.90;99.90;;;;;;5021821;28;20586;-86
2024/03/03 12:07:05;;;;;;;1.00;0.87;;;15.00;99.90;;;;;;5020094;28;20993;-85
2024/03/03 12:09:33;;;;;;;1.17;1.03;;;15.00;99.90;;;;;;5020278;28;20432;-85
2024/03/03 12:12:00;;;;;;;0.80;0.70;;;15.10;99.90;;;;;;5021495;28;20439;-85
2024/03/03 12:14:27;;;;;;;1.37;0.70;;;15.00;99.90;;;;;;5020882;28;20493;-85
2024/03/03 12:16:55;;;;;;;0.63;0.63;;;15.20;99.90;;;;;;5020750;28;20467;-85
2024/03/03 12:19:22;;;;;;;0.67;0.67;;;15.10;99.90;;;;;;5020538;28;20428;-85
2024/03/03 12:21:50;;;;;;;2.27;0.80;;;15.00;99.90;;;;;;5019655;28;20440;-85
2024/03/03 12:24:17;;;;;;;0.70;0.63;;;14.80;99.70;;;;;;5019752;28;20499;-85
2024/03/03 12:26:44;;;;;;;1.33;0.97;;;14.70;99.90;;;;;;5019186;28;20490;-85
2024/03/03 12:29:10;;;;;;;1.30;0.70;;;14.70;99.90;;;;;;5019127;28;20948;-85
2024/03/03 12:31:37;;;;;;;2.10;1.27;;;14.70;99.90;;;;;;5019052;28;20447;-85
2024/03/03 12:34:04;;;;;;;0.70;0.70;;;14.70;99.90;;;;;;5018801;28;20451;-84
2024/03/03 12:36:31;;;;;;;2.13;1.10;;;14.70;99.90;;;;;;5025475;28;20466;-84
2024/03/03 12:38:59;;;;;;;1.83;1.00;;;14.80;99.90;;;;;;5019474;28;20798;-85
2024/03/03 12:41:26;;;;;;;1.90;1.07;;;14.80;99.90;;;;;;5021420;28;20432;-85
2024/03/03 12:43:56;;;;;;;0.97;0.93;;;14.70;99.90;;;;;;5021504;28;20539;-85
2024/03/03 12:46:25;;;;;;;1.20;0.80;;;14.70;99.90;;;;;;5019962;28;20451;-85
2024/03/03 12:48:53;;;;;;;1.87;0.90;;;14.70;99.90;;;;;;5020445;28;20451;-84